Terminal Aerodrome Forecast
Issued by NWS Sioux Falls, SD

Home | Current Version | Previous Version | Text Only | Print | Product List | Glossary On
Versions: 1 2 3 4 5 6 7 8 9 10 11 12 13 14 15 16 17 18 19 20 21 22 23 24 25 26 27 28 29 30 31
000
FTUS43 KFSD 292330
TAFSUX
TAF
KSUX 292330Z 3000/3024 14006KT P6SM SKC
     FM300800 14004KT 3SM BR SKC
      TEMPO 3011/3015 1SM BR OVC003
     FM301600 15009KT P6SM FEW006
     FM301800 17011KT P6SM SKC=

USA.gov is the U.S. government's official web portal to all federal, state and local government web resources and services.